BAW108 OMDB-EGLL
Flight info
| Callsign | BAW108 |
|---|---|
| Flight time | N/A |
| Altitude | 36000 |
| Route | KUTLI L519 VUXOD DCT ATUDO DCT MUSEN M318 GOLGU DCT RIBOT DCT CHLY3 DCT ITRUX Y511 PMA Z712 WEJ L677 DARAX/N0476F380 L677 CVO L617 TANSA UL613 KOR DCT DIMIS DCT VAKSU/N0465F400 DCT MONFA DCT SOTOV DCT KPT DCT KUNOD DCT LIRSU DCT DENUT L608 LOGAN |
| Aircraft | A343/H-SDE2E3FGHIJ4J5M1RWXY/LB1D1 |
Departure
| Time | 2026-05-06 10:28 |
|---|---|
| Airport | Dubai International Airport (OMDB) |
Arrival
| Time | N/A |
|---|---|
| Airport | London Heathrow Airport (EGLL) |
| Time | Latitude | Longitude | Altitude | Speed | Heading |
|---|---|---|---|---|---|
| 2026-05-06 09:48 | 25.26047 | 55.34072 | 25 ft | 0 kts | 122° |
| 2026-05-06 10:13 | 25.26050 | 55.34067 | 25 ft | 4 kts | 122° |
| 2026-05-06 10:13 | 25.26064 | 55.34042 | 31 ft | 4 kts | 122° |
| 2026-05-06 10:13 | 25.26076 | 55.34021 | 31 ft | 4 kts | 114° |
| 2026-05-06 10:14 | 25.26079 | 55.33996 | 28 ft | 4 kts | 60° |
| 2026-05-06 10:14 | 25.26062 | 55.33978 | 31 ft | 4 kts | 31° |
| 2026-05-06 10:14 | 25.26046 | 55.33968 | 31 ft | 0 kts | 31° |
| 2026-05-06 10:17 | 25.26054 | 55.33973 | 31 ft | 5 kts | 31° |
| 2026-05-06 10:17 | 25.26100 | 55.34004 | 31 ft | 10 kts | 31° |
| 2026-05-06 10:17 | 25.26173 | 55.34054 | 28 ft | 14 kts | 31° |
| 2026-05-06 10:17 | 25.26210 | 55.34143 | 28 ft | 14 kts | 111° |
| 2026-05-06 10:18 | 25.26154 | 55.34232 | 29 ft | 15 kts | 123° |
| 2026-05-06 10:18 | 25.26098 | 55.34328 | 28 ft | 15 kts | 122° |
| 2026-05-06 10:18 | 25.26045 | 55.34426 | 29 ft | 15 kts | 121° |
| 2026-05-06 10:18 | 25.25976 | 55.34548 | 29 ft | 22 kts | 122° |
| 2026-05-06 10:19 | 25.25895 | 55.34694 | 27 ft | 22 kts | 121° |
| 2026-05-06 10:19 | 25.25860 | 55.34853 | 25 ft | 21 kts | 92° |
| 2026-05-06 10:19 | 25.25828 | 55.35005 | 27 ft | 18 kts | 104° |
| 2026-05-06 10:19 | 25.25884 | 55.35076 | 29 ft | 12 kts | 32° |
| 2026-05-06 10:20 | 25.25954 | 55.35125 | 29 ft | 12 kts | 32° |
| 2026-05-06 10:20 | 25.26022 | 55.35171 | 29 ft | 11 kts | 31° |
| 2026-05-06 10:20 | 25.26089 | 55.35216 | 29 ft | 12 kts | 31° |
| 2026-05-06 10:20 | 25.26132 | 55.35298 | 27 ft | 13 kts | 103° |
| 2026-05-06 10:21 | 25.26082 | 55.35391 | 27 ft | 16 kts | 122° |
| 2026-05-06 10:21 | 25.26017 | 55.35507 | 27 ft | 18 kts | 121° |
| 2026-05-06 10:21 | 25.25952 | 55.35625 | 27 ft | 18 kts | 121° |
| 2026-05-06 10:21 | 25.25886 | 55.35744 | 27 ft | 18 kts | 123° |
| 2026-05-06 10:22 | 25.25809 | 55.35876 | 27 ft | 22 kts | 121° |
| 2026-05-06 10:22 | 25.25729 | 55.36018 | 27 ft | 22 kts | 122° |
| 2026-05-06 10:22 | 25.25650 | 55.36159 | 28 ft | 21 kts | 122° |
| 2026-05-06 10:22 | 25.25575 | 55.36295 | 27 ft | 21 kts | 121° |
| 2026-05-06 10:23 | 25.25501 | 55.36427 | 28 ft | 20 kts | 122° |
| 2026-05-06 10:23 | 25.25427 | 55.36557 | 28 ft | 20 kts | 122° |
| 2026-05-06 10:23 | 25.25355 | 55.36684 | 27 ft | 20 kts | 122° |
| 2026-05-06 10:23 | 25.25285 | 55.36811 | 28 ft | 19 kts | 121° |
| 2026-05-06 10:24 | 25.25218 | 55.36928 | 28 ft | 20 kts | 121° |
| 2026-05-06 10:24 | 25.25151 | 55.37052 | 29 ft | 20 kts | 121° |
| 2026-05-06 10:24 | 25.25080 | 55.37177 | 29 ft | 19 kts | 122° |
| 2026-05-06 10:24 | 25.25010 | 55.37300 | 29 ft | 19 kts | 122° |
| 2026-05-06 10:25 | 25.24942 | 55.37421 | 29 ft | 18 kts | 121° |
| 2026-05-06 10:25 | 25.24876 | 55.37540 | 29 ft | 18 kts | 122° |
| 2026-05-06 10:25 | 25.24808 | 55.37658 | 29 ft | 18 kts | 122° |
| 2026-05-06 10:25 | 25.24742 | 55.37776 | 28 ft | 18 kts | 122° |
| 2026-05-06 10:26 | 25.24725 | 55.37867 | 28 ft | 11 kts | 59° |
| 2026-05-06 10:26 | 25.24776 | 55.37907 | 31 ft | 7 kts | 31° |
| 2026-05-06 10:26 | 25.24807 | 55.37927 | 33 ft | 5 kts | 31° |
| 2026-05-06 10:26 | 25.24853 | 55.37934 | 34 ft | 7 kts | 330° |
| 2026-05-06 10:27 | 25.24883 | 55.37887 | 34 ft | 9 kts | 301° |
| 2026-05-06 10:27 | 25.24957 | 55.37753 | 34 ft | 42 kts | 301° |
| 2026-05-06 10:27 | 25.25193 | 55.37328 | 36 ft | 88 kts | 301° |
| 2026-05-06 10:27 | 25.25587 | 55.36616 | 33 ft | 127 kts | 301° |
| 2026-05-06 10:28 | 25.26111 | 55.35679 | 45 ft | 158 kts | 302° |
| 2026-05-06 10:28 | 25.26674 | 55.34640 | 478 ft | 156 kts | 304° |
| 2026-05-06 10:28 | 25.27212 | 55.33607 | 910 ft | 155 kts | 301° |
| 2026-05-06 10:28 | 25.27738 | 55.32569 | 1301 ft | 154 kts | 299° |
| 2026-05-06 10:29 | 25.28271 | 55.31543 | 1612 ft | 155 kts | 300° |
| 2026-05-06 10:29 | 25.28857 | 55.30503 | 1863 ft | 166 kts | 299° |
| 2026-05-06 10:29 | 25.29216 | 55.29247 | 2036 ft | 180 kts | 271° |
| 2026-05-06 10:29 | 25.28938 | 55.27863 | 2240 ft | 192 kts | 246° |
| 2026-05-06 10:30 | 25.28361 | 55.26469 | 2456 ft | 208 kts | 242° |
| 2026-05-06 10:30 | 25.27690 | 55.24945 | 2604 ft | 231 kts | 242° |
| 2026-05-06 10:30 | 25.26966 | 55.23286 | 2869 ft | 248 kts | 242° |
| 2026-05-06 10:30 | 25.26220 | 55.21554 | 3293 ft | 256 kts | 242° |
| 2026-05-06 10:31 | 25.25452 | 55.19765 | 3807 ft | 260 kts | 242° |
| 2026-05-06 10:31 | 25.24678 | 55.17948 | 4335 ft | 263 kts | 243° |
| 2026-05-06 10:31 | 25.23894 | 55.16105 | 4889 ft | 266 kts | 243° |
| 2026-05-06 10:31 | 25.23006 | 55.14280 | 5320 ft | 274 kts | 238° |
| 2026-05-06 10:32 | 25.22019 | 55.12451 | 5798 ft | 281 kts | 238° |
| 2026-05-06 10:32 | 25.21013 | 55.10580 | 6323 ft | 285 kts | 238° |
| 2026-05-06 10:32 | 25.20071 | 55.08642 | 6873 ft | 289 kts | 244° |
| 2026-05-06 10:32 | 25.19267 | 55.06593 | 7424 ft | 292 kts | 246° |
| 2026-05-06 10:33 | 25.18490 | 55.04510 | 7971 ft | 296 kts | 246° |
| 2026-05-06 10:33 | 25.17702 | 55.02390 | 8517 ft | 299 kts | 247° |
| 2026-05-06 10:33 | 25.16907 | 55.00258 | 9131 ft | 301 kts | 248° |
| 2026-05-06 10:33 | 25.16105 | 54.98103 | 9685 ft | 305 kts | 248° |
| 2026-05-06 10:34 | 25.15249 | 54.95950 | 10200 ft | 309 kts | 242° |
| 2026-05-06 10:34 | 25.13915 | 54.94046 | 10439 ft | 323 kts | 218° |
| 2026-05-06 10:34 | 25.11905 | 54.92884 | 10664 ft | 334 kts | 192° |
| 2026-05-06 10:34 | 25.09569 | 54.92623 | 10903 ft | 344 kts | 178° |
| 2026-05-06 10:35 | 25.07130 | 54.92640 | 11129 ft | 357 kts | 177° |
| 2026-05-06 10:35 | 25.04608 | 54.92674 | 11345 ft | 369 kts | 178° |
| 2026-05-06 10:35 | 25.02035 | 54.92697 | 11569 ft | 379 kts | 179° |
| 2026-05-06 10:35 | 24.99334 | 54.92834 | 11825 ft | 388 kts | 175° |
| 2026-05-06 10:36 | 24.96655 | 54.93054 | 12141 ft | 393 kts | 175° |
| 2026-05-06 10:36 | 24.93921 | 54.93273 | 12550 ft | 396 kts | 175° |
| 2026-05-06 10:36 | 24.91160 | 54.93481 | 12997 ft | 398 kts | 175° |
| 2026-05-06 10:36 | 24.88379 | 54.93632 | 13430 ft | 401 kts | 180° |
| 2026-05-06 10:37 | 24.85619 | 54.93165 | 13804 ft | 406 kts | 198° |
| 2026-05-06 10:37 | 24.82985 | 54.92003 | 14177 ft | 409 kts | 205° |
| 2026-05-06 10:37 | 24.80444 | 54.90580 | 14547 ft | 412 kts | 208° |
| 2026-05-06 10:37 | 24.77943 | 54.89034 | 14985 ft | 412 kts | 210° |
| 2026-05-06 10:38 | 24.75452 | 54.87451 | 15404 ft | 414 kts | 209° |
| 2026-05-06 10:38 | 24.72968 | 54.85883 | 15841 ft | 415 kts | 209° |
| 2026-05-06 10:38 | 24.70424 | 54.84306 | 16227 ft | 418 kts | 208° |
| 2026-05-06 10:38 | 24.67869 | 54.82750 | 16603 ft | 421 kts | 208° |
| 2026-05-06 10:39 | 24.65315 | 54.81161 | 17048 ft | 422 kts | 210° |
| 2026-05-06 10:39 | 24.62772 | 54.79528 | 17496 ft | 424 kts | 210° |
| 2026-05-06 10:39 | 24.60219 | 54.77868 | 17905 ft | 427 kts | 210° |
| 2026-05-06 10:39 | 24.57653 | 54.76201 | 18291 ft | 429 kts | 210° |
| 2026-05-06 10:40 | 24.55073 | 54.74533 | 18620 ft | 432 kts | 210° |
| 2026-05-06 10:40 | 24.52472 | 54.72862 | 19007 ft | 434 kts | 210° |
| 2026-05-06 10:40 | 24.49863 | 54.71191 | 19406 ft | 435 kts | 210° |
| 2026-05-06 10:40 | 24.47278 | 54.69532 | 19776 ft | 437 kts | 210° |
| 2026-05-06 10:41 | 24.44649 | 54.67843 | 20163 ft | 438 kts | 211° |
| 2026-05-06 10:41 | 24.42011 | 54.66153 | 20524 ft | 440 kts | 211° |
| 2026-05-06 10:41 | 24.39350 | 54.64452 | 20893 ft | 442 kts | 211° |
| 2026-05-06 10:41 | 24.36690 | 54.62753 | 21262 ft | 444 kts | 211° |
| 2026-05-06 10:42 | 24.34016 | 54.61048 | 21660 ft | 445 kts | 211° |
| 2026-05-06 10:42 | 24.31331 | 54.59337 | 21989 ft | 447 kts | 211° |
| 2026-05-06 10:42 | 24.28634 | 54.57617 | 22299 ft | 450 kts | 211° |
| 2026-05-06 10:42 | 24.26016 | 54.55726 | 22630 ft | 451 kts | 220° |
| 2026-05-06 10:43 | 24.23799 | 54.53305 | 22935 ft | 451 kts | 232° |
| 2026-05-06 10:43 | 24.22583 | 54.51452 | 23128 ft | 452 kts | 238° |
| 2026-05-06 10:43 | 24.20946 | 54.48510 | 23433 ft | 454 kts | 241° |
| 2026-05-06 10:44 | 24.17885 | 54.42431 | 23994 ft | 456 kts | 242° |
| 2026-05-06 10:44 | 24.16373 | 54.39376 | 24296 ft | 457 kts | 242° |
| 2026-05-06 10:44 | 24.14844 | 54.36315 | 24606 ft | 458 kts | 242° |
| 2026-05-06 10:44 | 24.13296 | 54.33255 | 24899 ft | 459 kts | 242° |
| 2026-05-06 10:45 | 24.11735 | 54.30200 | 25188 ft | 460 kts | 241° |
| 2026-05-06 10:45 | 24.10162 | 54.27142 | 25483 ft | 462 kts | 241° |
| 2026-05-06 10:45 | 24.08583 | 54.24081 | 25763 ft | 463 kts | 241° |
| 2026-05-06 10:45 | 24.06999 | 54.21017 | 26071 ft | 463 kts | 241° |
| 2026-05-06 10:46 | 24.05407 | 54.17939 | 26362 ft | 464 kts | 241° |
| 2026-05-06 10:46 | 24.03831 | 54.14893 | 26634 ft | 465 kts | 241° |
| 2026-05-06 10:46 | 24.02236 | 54.11810 | 26912 ft | 467 kts | 241° |
| 2026-05-06 10:46 | 24.00633 | 54.08713 | 27183 ft | 468 kts | 241° |
| 2026-05-06 10:47 | 23.99028 | 54.05615 | 27453 ft | 469 kts | 241° |
| 2026-05-06 10:47 | 23.97413 | 54.02535 | 27454 ft | 465 kts | 240° |
| 2026-05-06 10:47 | 23.95790 | 53.99468 | 26970 ft | 465 kts | 240° |
| 2026-05-06 10:47 | 23.94166 | 53.96412 | 27008 ft | 464 kts | 240° |
| 2026-05-06 10:48 | 23.92538 | 53.93350 | 27231 ft | 467 kts | 240° |
| 2026-05-06 10:48 | 23.90901 | 53.90266 | 27484 ft | 469 kts | 240° |
| 2026-05-06 10:48 | 23.89261 | 53.87171 | 27737 ft | 470 kts | 240° |
| 2026-05-06 10:48 | 23.87621 | 53.84077 | 28010 ft | 471 kts | 240° |
| 2026-05-06 10:49 | 23.85979 | 53.80981 | 28269 ft | 472 kts | 240° |
| 2026-05-06 10:49 | 23.84329 | 53.77872 | 28513 ft | 473 kts | 240° |
| 2026-05-06 10:49 | 23.82677 | 53.74762 | 28841 ft | 472 kts | 240° |
| 2026-05-06 10:49 | 23.81033 | 53.71670 | 29252 ft | 470 kts | 240° |
| 2026-05-06 10:50 | 23.79418 | 53.68633 | 29676 ft | 468 kts | 240° |
| 2026-05-06 10:50 | 23.77784 | 53.65567 | 30023 ft | 466 kts | 240° |
| 2026-05-06 10:50 | 23.76158 | 53.62515 | 30312 ft | 464 kts | 240° |
| 2026-05-06 10:50 | 23.74535 | 53.59471 | 30597 ft | 463 kts | 240° |
| 2026-05-06 10:51 | 23.72918 | 53.56440 | 30898 ft | 461 kts | 240° |
| 2026-05-06 10:51 | 23.71307 | 53.53419 | 31168 ft | 460 kts | 240° |
| 2026-05-06 10:51 | 23.69696 | 53.50402 | 31447 ft | 460 kts | 240° |
| 2026-05-06 10:51 | 23.68093 | 53.47390 | 31717 ft | 459 kts | 241° |
| 2026-05-06 10:52 | 23.66497 | 53.44375 | 31983 ft | 457 kts | 241° |
| 2026-05-06 10:52 | 23.64907 | 53.41366 | 32254 ft | 456 kts | 241° |
| 2026-05-06 10:52 | 23.63323 | 53.38372 | 32518 ft | 455 kts | 241° |
| 2026-05-06 10:52 | 23.61741 | 53.35386 | 32777 ft | 454 kts | 241° |
| 2026-05-06 10:53 | 23.60159 | 53.32403 | 33037 ft | 453 kts | 241° |
| 2026-05-06 10:53 | 23.58583 | 53.29435 | 33286 ft | 452 kts | 241° |
| 2026-05-06 10:53 | 23.57008 | 53.26473 | 33529 ft | 451 kts | 241° |
| 2026-05-06 10:53 | 23.55453 | 53.23551 | 33747 ft | 451 kts | 241° |
| 2026-05-06 10:54 | 23.53878 | 53.20593 | 33902 ft | 451 kts | 241° |
| 2026-05-06 10:54 | 23.52305 | 53.17639 | 34087 ft | 451 kts | 241° |
| 2026-05-06 10:54 | 23.50731 | 53.14687 | 34259 ft | 450 kts | 241° |
| 2026-05-06 10:54 | 23.49160 | 53.11741 | 34423 ft | 450 kts | 241° |
| 2026-05-06 10:55 | 23.47585 | 53.08791 | 34588 ft | 450 kts | 241° |
| 2026-05-06 10:55 | 23.46015 | 53.05850 | 34756 ft | 450 kts | 241° |
| 2026-05-06 10:55 | 23.44442 | 53.02905 | 34913 ft | 449 kts | 241° |
| 2026-05-06 10:55 | 23.42870 | 52.99964 | 35078 ft | 449 kts | 241° |
| 2026-05-06 10:56 | 23.41298 | 52.97026 | 35231 ft | 449 kts | 240° |
| 2026-05-06 10:56 | 23.39728 | 52.94086 | 35389 ft | 448 kts | 241° |
| 2026-05-06 10:56 | 23.38187 | 52.91129 | 35529 ft | 448 kts | 242° |
| 2026-05-06 10:56 | 23.36672 | 52.88160 | 35680 ft | 448 kts | 242° |
| 2026-05-06 10:57 | 23.35164 | 52.85188 | 35745 ft | 450 kts | 242° |
| 2026-05-06 10:57 | 23.32144 | 52.79252 | 35747 ft | 451 kts | 242° |
| 2026-05-06 10:58 | 23.29091 | 52.73299 | 35746 ft | 449 kts | 242° |
| 2026-05-06 10:58 | 23.26037 | 52.67368 | 35747 ft | 449 kts | 242° |
| 2026-05-06 10:59 | 23.22977 | 52.61434 | 35747 ft | 449 kts | 242° |
| 2026-05-06 10:59 | 23.19913 | 52.55498 | 35743 ft | 449 kts | 242° |
| 2026-05-06 11:00 | 23.17307 | 52.49395 | 35745 ft | 448 kts | 250° |
| 2026-05-06 11:00 | 23.15252 | 52.42998 | 35745 ft | 448 kts | 255° |
| 2026-05-06 11:01 | 23.14346 | 52.36303 | 35743 ft | 449 kts | 265° |
| 2026-05-06 11:01 | 23.14027 | 52.29526 | 35741 ft | 450 kts | 266° |
| 2026-05-06 11:02 | 23.13785 | 52.22732 | 35741 ft | 449 kts | 266° |
| 2026-05-06 11:02 | 23.13529 | 52.15945 | 35741 ft | 449 kts | 266° |
| 2026-05-06 11:03 | 23.13252 | 52.09161 | 35747 ft | 449 kts | 266° |
| 2026-05-06 11:03 | 23.12968 | 52.02422 | 35744 ft | 449 kts | 266° |
| 2026-05-06 11:04 | 23.12678 | 51.95643 | 35739 ft | 449 kts | 266° |
| 2026-05-06 11:04 | 23.12386 | 51.88861 | 35741 ft | 449 kts | 266° |
| 2026-05-06 11:05 | 23.12092 | 51.82083 | 35743 ft | 449 kts | 266° |
| 2026-05-06 11:05 | 23.11795 | 51.75307 | 35743 ft | 449 kts | 266° |
| 2026-05-06 11:06 | 23.11495 | 51.68528 | 35743 ft | 449 kts | 266° |
| 2026-05-06 11:06 | 23.11192 | 51.61755 | 35743 ft | 449 kts | 266° |
| 2026-05-06 11:07 | 23.10887 | 51.54979 | 35744 ft | 449 kts | 266° |
| 2026-05-06 11:07 | 23.10580 | 51.48250 | 35747 ft | 449 kts | 266° |
| 2026-05-06 11:08 | 23.10269 | 51.41473 | 35746 ft | 449 kts | 266° |
| 2026-05-06 11:08 | 23.09954 | 51.34699 | 35746 ft | 449 kts | 266° |
| 2026-05-06 11:09 | 23.09611 | 51.27933 | 35746 ft | 447 kts | 265° |
| 2026-05-06 11:09 | 23.09139 | 51.21212 | 35744 ft | 445 kts | 264° |
| 2026-05-06 11:10 | 23.08646 | 51.14513 | 35746 ft | 445 kts | 264° |
| 2026-05-06 11:10 | 23.08168 | 51.07814 | 35753 ft | 445 kts | 264° |
| 2026-05-06 11:11 | 23.07700 | 51.01116 | 35745 ft | 445 kts | 264° |
| 2026-05-06 11:11 | 23.07234 | 50.94463 | 35752 ft | 445 kts | 264° |
| 2026-05-06 11:12 | 23.06762 | 50.87756 | 35749 ft | 445 kts | 264° |
| 2026-05-06 11:12 | 23.06287 | 50.81057 | 35755 ft | 445 kts | 264° |
| 2026-05-06 11:13 | 23.05808 | 50.74355 | 35754 ft | 445 kts | 264° |
| 2026-05-06 11:13 | 23.05326 | 50.67648 | 35754 ft | 445 kts | 264° |
| 2026-05-06 11:14 | 23.04844 | 50.60985 | 35755 ft | 445 kts | 264° |
| 2026-05-06 11:14 | 23.04357 | 50.54281 | 35751 ft | 445 kts | 264° |
| 2026-05-06 11:15 | 23.03866 | 50.47572 | 35753 ft | 445 kts | 264° |
| 2026-05-06 11:15 | 23.03372 | 50.40854 | 35750 ft | 445 kts | 264° |
| 2026-05-06 11:16 | 23.02879 | 50.34186 | 35753 ft | 446 kts | 264° |
| 2026-05-06 11:16 | 23.02380 | 50.27479 | 35758 ft | 446 kts | 264° |
| 2026-05-06 11:17 | 23.01877 | 50.20763 | 35755 ft | 446 kts | 264° |
| 2026-05-06 11:17 | 23.01372 | 50.14050 | 35763 ft | 446 kts | 264° |
| 2026-05-06 11:18 | 23.00864 | 50.07333 | 35749 ft | 446 kts | 264° |
| 2026-05-06 11:18 | 23.00357 | 50.00671 | 35748 ft | 445 kts | 264° |
| 2026-05-06 11:19 | 22.99844 | 49.93966 | 35750 ft | 446 kts | 264° |
| 2026-05-06 11:19 | 22.99327 | 49.87258 | 35752 ft | 446 kts | 264° |
| 2026-05-06 11:20 | 22.98808 | 49.80550 | 35754 ft | 446 kts | 263° |
| 2026-05-06 11:20 | 22.98286 | 49.73836 | 35752 ft | 446 kts | 263° |
| 2026-05-06 11:21 | 22.97761 | 49.67127 | 35744 ft | 446 kts | 263° |
| 2026-05-06 11:21 | 22.97236 | 49.60458 | 35750 ft | 446 kts | 263° |
| 2026-05-06 11:22 | 22.96702 | 49.53709 | 35747 ft | 446 kts | 263° |
| 2026-05-06 11:22 | 22.96172 | 49.47045 | 35750 ft | 446 kts | 263° |
| 2026-05-06 11:23 | 22.95633 | 49.40302 | 35751 ft | 446 kts | 263° |
| 2026-05-06 11:23 | 22.95097 | 49.33641 | 35745 ft | 445 kts | 263° |
| 2026-05-06 11:24 | 22.94557 | 49.26946 | 35745 ft | 446 kts | 263° |
| 2026-05-06 11:24 | 22.94012 | 49.20237 | 35750 ft | 446 kts | 263° |
| 2026-05-06 11:25 | 22.93465 | 49.13540 | 35749 ft | 446 kts | 263° |
| 2026-05-06 11:25 | 22.92915 | 49.06840 | 35751 ft | 446 kts | 263° |
| 2026-05-06 11:26 | 22.92362 | 49.00140 | 35751 ft | 445 kts | 263° |
| 2026-05-06 11:26 | 22.91808 | 48.93459 | 35745 ft | 445 kts | 263° |
| 2026-05-06 11:27 | 22.91251 | 48.86777 | 35763 ft | 445 kts | 263° |
| 2026-05-06 11:27 | 22.90694 | 48.80130 | 35752 ft | 445 kts | 263° |
| 2026-05-06 11:28 | 22.90131 | 48.73446 | 35755 ft | 445 kts | 263° |
| 2026-05-06 11:28 | 22.89566 | 48.66767 | 35766 ft | 445 kts | 263° |
| 2026-05-06 11:29 | 22.88998 | 48.60089 | 35757 ft | 445 kts | 263° |
| 2026-05-06 11:29 | 22.88427 | 48.53408 | 35759 ft | 445 kts | 263° |
| 2026-05-06 11:30 | 22.87852 | 48.46724 | 35769 ft | 445 kts | 263° |
| 2026-05-06 11:30 | 22.87280 | 48.40086 | 35758 ft | 445 kts | 263° |
| 2026-05-06 11:31 | 22.86700 | 48.33405 | 35757 ft | 444 kts | 263° |
| 2026-05-06 11:31 | 22.86118 | 48.26734 | 35759 ft | 444 kts | 263° |
| 2026-05-06 11:32 | 22.85534 | 48.20064 | 35760 ft | 444 kts | 263° |
| 2026-05-06 11:32 | 22.85046 | 48.14522 | 35759 ft | 445 kts | 263° |
| 2026-05-06 11:33 | 22.84360 | 48.06757 | 35757 ft | 445 kts | 262° |
| 2026-05-06 11:33 | 22.83866 | 48.01202 | 35757 ft | 444 kts | 262° |
| 2026-05-06 11:34 | 22.83272 | 47.94540 | 35756 ft | 443 kts | 262° |
| 2026-05-06 11:34 | 22.82678 | 47.87905 | 35759 ft | 442 kts | 262° |
| 2026-05-06 11:35 | 22.82079 | 47.81270 | 35757 ft | 442 kts | 262° |
| 2026-05-06 11:35 | 22.81479 | 47.74641 | 35765 ft | 442 kts | 262° |
| 2026-05-06 11:36 | 22.80877 | 47.68011 | 35769 ft | 442 kts | 262° |
| 2026-05-06 11:36 | 22.80271 | 47.61380 | 35777 ft | 442 kts | 262° |
| 2026-05-06 11:37 | 22.79662 | 47.54745 | 35777 ft | 442 kts | 262° |
| 2026-05-06 11:37 | 22.79052 | 47.48127 | 35779 ft | 441 kts | 262° |
| 2026-05-06 11:38 | 22.78443 | 47.41550 | 35780 ft | 441 kts | 262° |
| 2026-05-06 11:38 | 22.77827 | 47.34924 | 35792 ft | 442 kts | 262° |
| 2026-05-06 11:39 | 22.77208 | 47.28303 | 35800 ft | 442 kts | 262° |
| 2026-05-06 11:39 | 22.76586 | 47.21669 | 35799 ft | 442 kts | 262° |
| 2026-05-06 11:40 | 22.76459 | 47.15003 | 35800 ft | 444 kts | 270° |
| 2026-05-06 11:40 | 22.76914 | 47.08319 | 35803 ft | 445 kts | 272° |
| 2026-05-06 11:41 | 22.77459 | 47.01642 | 35811 ft | 444 kts | 272° |
| 2026-05-06 11:41 | 22.77999 | 46.95032 | 35819 ft | 443 kts | 272° |
| 2026-05-06 11:42 | 22.78526 | 46.88379 | 35817 ft | 443 kts | 272° |
| 2026-05-06 11:42 | 22.79045 | 46.81723 | 35817 ft | 443 kts | 271° |
| 2026-05-06 11:43 | 22.79559 | 46.75075 | 35822 ft | 443 kts | 271° |
| 2026-05-06 11:43 | 22.80071 | 46.68421 | 35828 ft | 443 kts | 271° |
| 2026-05-06 11:44 | 22.80834 | 46.58447 | 35837 ft | 442 kts | 271° |
| 2026-05-06 11:44 | 22.81336 | 46.51836 | 35845 ft | 443 kts | 271° |
| 2026-05-06 11:45 | 22.81839 | 46.45188 | 35849 ft | 442 kts | 271° |
| 2026-05-06 11:45 | 22.82337 | 46.38566 | 35852 ft | 440 kts | 271° |
| 2026-05-06 11:46 | 22.82833 | 46.31944 | 35855 ft | 441 kts | 271° |
| 2026-05-06 11:46 | 22.83319 | 46.25322 | 35858 ft | 441 kts | 271° |
| 2026-05-06 11:47 | 22.83803 | 46.18690 | 35854 ft | 441 kts | 271° |
| 2026-05-06 11:47 | 22.84289 | 46.12046 | 35855 ft | 442 kts | 271° |
| 2026-05-06 11:48 | 22.84771 | 46.05404 | 35853 ft | 442 kts | 271° |
| 2026-05-06 11:48 | 22.85249 | 45.98798 | 35853 ft | 442 kts | 271° |
| 2026-05-06 11:49 | 22.85727 | 45.92147 | 35863 ft | 442 kts | 271° |
| 2026-05-06 11:49 | 22.86201 | 45.85522 | 35853 ft | 440 kts | 271° |
| 2026-05-06 11:50 | 22.86669 | 45.78915 | 35855 ft | 439 kts | 271° |
| 2026-05-06 11:50 | 22.87135 | 45.72310 | 35857 ft | 439 kts | 271° |
| 2026-05-06 11:51 | 22.87598 | 45.65710 | 35868 ft | 439 kts | 271° |
| 2026-05-06 11:51 | 22.88058 | 45.59104 | 35870 ft | 439 kts | 271° |
| 2026-05-06 11:52 | 22.88516 | 45.52498 | 35874 ft | 439 kts | 271° |
| 2026-05-06 11:52 | 22.88968 | 45.45935 | 35884 ft | 439 kts | 271° |
| 2026-05-06 11:53 | 22.89420 | 45.39330 | 35883 ft | 439 kts | 271° |
| 2026-05-06 11:53 | 22.89870 | 45.32727 | 35886 ft | 437 kts | 271° |
| 2026-05-06 11:54 | 22.90314 | 45.26169 | 35894 ft | 436 kts | 270° |
| 2026-05-06 11:54 | 22.90754 | 45.19612 | 35897 ft | 436 kts | 270° |
| 2026-05-06 11:55 | 22.91192 | 45.13055 | 35898 ft | 436 kts | 270° |
| 2026-05-06 11:55 | 22.91628 | 45.06483 | 35894 ft | 436 kts | 270° |
| 2026-05-06 11:56 | 22.92058 | 44.99964 | 35894 ft | 436 kts | 270° |
| 2026-05-06 11:56 | 22.92486 | 44.93395 | 35896 ft | 436 kts | 270° |
| 2026-05-06 11:57 | 22.92913 | 44.86828 | 35897 ft | 436 kts | 270° |
| 2026-05-06 11:57 | 22.93339 | 44.80241 | 35900 ft | 437 kts | 270° |
| 2026-05-06 11:58 | 22.93761 | 44.73671 | 35902 ft | 436 kts | 270° |
| 2026-05-06 11:58 | 22.94402 | 44.67110 | 35902 ft | 440 kts | 278° |
| 2026-05-06 11:59 | 22.96112 | 44.60697 | 35903 ft | 444 kts | 283° |
| 2026-05-06 11:59 | 22.98055 | 44.54383 | 35900 ft | 444 kts | 284° |
| 2026-05-06 12:00 | 23.00043 | 44.48039 | 35901 ft | 444 kts | 284° |
| 2026-05-06 12:00 | 23.02016 | 44.41687 | 35909 ft | 444 kts | 283° |
| 2026-05-06 12:01 | 23.03969 | 44.35343 | 35900 ft | 443 kts | 283° |
| 2026-05-06 12:01 | 23.05921 | 44.28983 | 35896 ft | 443 kts | 283° |
| 2026-05-06 12:02 | 23.07853 | 44.22675 | 35892 ft | 443 kts | 283° |
| 2026-05-06 12:02 | 23.09796 | 44.16327 | 35894 ft | 442 kts | 283° |
| 2026-05-06 12:03 | 23.11732 | 44.09991 | 35887 ft | 442 kts | 283° |
| 2026-05-06 12:03 | 23.13665 | 44.03651 | 35890 ft | 442 kts | 283° |
| 2026-05-06 12:04 | 23.15580 | 43.97365 | 35889 ft | 440 kts | 283° |
| 2026-05-06 12:04 | 23.17503 | 43.91043 | 35890 ft | 440 kts | 283° |
| 2026-05-06 12:05 | 23.19417 | 43.84735 | 35891 ft | 440 kts | 283° |
| 2026-05-06 12:05 | 23.21330 | 43.78422 | 35902 ft | 439 kts | 283° |
| 2026-05-06 12:06 | 23.23238 | 43.72115 | 35906 ft | 439 kts | 282° |
| 2026-05-06 12:06 | 23.25143 | 43.65810 | 35911 ft | 439 kts | 282° |
| 2026-05-06 12:07 | 23.27046 | 43.59502 | 35908 ft | 438 kts | 282° |
| 2026-05-06 12:07 | 23.28931 | 43.53249 | 35916 ft | 438 kts | 282° |
| 2026-05-06 12:08 | 23.30828 | 43.46939 | 35925 ft | 438 kts | 282° |
| 2026-05-06 12:08 | 23.32715 | 43.40651 | 35936 ft | 437 kts | 282° |
| 2026-05-06 12:09 | 23.34597 | 43.34377 | 35940 ft | 436 kts | 282° |
| 2026-05-06 12:09 | 23.36474 | 43.28103 | 35938 ft | 435 kts | 282° |
| 2026-05-06 12:10 | 23.38334 | 43.21874 | 35960 ft | 436 kts | 282° |
| 2026-05-06 12:10 | 23.40208 | 43.15595 | 35955 ft | 435 kts | 282° |
| 2026-05-06 12:11 | 23.42078 | 43.09327 | 35961 ft | 435 kts | 282° |
| 2026-05-06 12:11 | 23.43936 | 43.03055 | 35963 ft | 435 kts | 281° |
| 2026-05-06 12:12 | 23.45791 | 42.96780 | 35971 ft | 434 kts | 281° |
| 2026-05-06 12:12 | 23.47629 | 42.90561 | 35970 ft | 434 kts | 281° |
| 2026-05-06 12:13 | 23.49477 | 42.84298 | 35972 ft | 434 kts | 281° |
| 2026-05-06 12:13 | 23.51321 | 42.78041 | 35974 ft | 434 kts | 281° |
| 2026-05-06 12:14 | 23.53171 | 42.71770 | 35977 ft | 434 kts | 281° |
| 2026-05-06 12:14 | 23.55016 | 42.65506 | 35981 ft | 434 kts | 281° |
| 2026-05-06 12:15 | 23.56843 | 42.59286 | 35991 ft | 433 kts | 281° |
| 2026-05-06 12:15 | 23.58678 | 42.53035 | 35987 ft | 433 kts | 281° |
| 2026-05-06 12:16 | 23.60509 | 42.46784 | 35988 ft | 433 kts | 281° |
| 2026-05-06 12:16 | 23.62339 | 42.40528 | 36003 ft | 433 kts | 281° |
| 2026-05-06 12:17 | 23.64164 | 42.34282 | 35984 ft | 432 kts | 281° |
| 2026-05-06 12:17 | 23.65983 | 42.28048 | 35979 ft | 431 kts | 281° |
| 2026-05-06 12:18 | 23.67799 | 42.21808 | 35982 ft | 431 kts | 280° |
| 2026-05-06 12:18 | 23.69603 | 42.15566 | 35978 ft | 430 kts | 280° |
| 2026-05-06 12:19 | 23.71401 | 42.09339 | 35974 ft | 430 kts | 280° |
| 2026-05-06 12:19 | 23.73197 | 42.03116 | 35975 ft | 430 kts | 280° |
| 2026-05-06 12:20 | 23.74984 | 41.96926 | 35977 ft | 430 kts | 280° |
| 2026-05-06 12:20 | 23.76785 | 41.90703 | 35965 ft | 429 kts | 280° |
| 2026-05-06 12:21 | 23.78276 | 41.85534 | 35964 ft | 429 kts | 280° |
| 2026-05-06 12:21 | 23.80066 | 41.79318 | 35968 ft | 429 kts | 280° |
| 2026-05-06 12:22 | 23.81863 | 41.73086 | 35963 ft | 430 kts | 280° |
| 2026-05-06 12:22 | 23.83649 | 41.66856 | 35965 ft | 430 kts | 280° |
| 2026-05-06 12:23 | 23.85432 | 41.60619 | 35965 ft | 430 kts | 280° |
| 2026-05-06 12:23 | 23.87215 | 41.54389 | 35977 ft | 430 kts | 280° |
| 2026-05-06 12:24 | 23.88978 | 41.48201 | 35965 ft | 429 kts | 279° |
| 2026-05-06 12:24 | 23.90739 | 41.41977 | 35968 ft | 428 kts | 279° |
| 2026-05-06 12:25 | 23.92500 | 41.35750 | 35964 ft | 428 kts | 279° |
| 2026-05-06 12:25 | 23.94267 | 41.29527 | 35960 ft | 427 kts | 279° |
| 2026-05-06 12:26 | 23.96024 | 41.23324 | 35954 ft | 427 kts | 279° |
| 2026-05-06 12:26 | 23.97767 | 41.17155 | 35949 ft | 427 kts | 279° |
| 2026-05-06 12:27 | 23.99520 | 41.10945 | 35962 ft | 427 kts | 279° |
| 2026-05-06 12:27 | 24.01268 | 41.04742 | 35950 ft | 426 kts | 279° |
| 2026-05-06 12:28 | 24.03016 | 40.98532 | 35946 ft | 426 kts | 279° |
| 2026-05-06 12:28 | 24.04749 | 40.92373 | 35942 ft | 426 kts | 279° |
| 2026-05-06 12:29 | 24.06487 | 40.86177 | 35943 ft | 426 kts | 279° |
| 2026-05-06 12:29 | 24.08223 | 40.79969 | 35941 ft | 425 kts | 279° |
| 2026-05-06 12:30 | 24.09952 | 40.73780 | 35941 ft | 425 kts | 279° |
| 2026-05-06 12:30 | 24.11681 | 40.67580 | 35943 ft | 426 kts | 279° |
| 2026-05-06 12:31 | 24.13408 | 40.61383 | 35939 ft | 425 kts | 279° |
| 2026-05-06 12:31 | 24.15122 | 40.55219 | 35936 ft | 425 kts | 279° |
| 2026-05-06 12:32 | 24.17321 | 40.49139 | 35936 ft | 435 kts | 288° |
| 2026-05-06 12:32 | 24.20079 | 40.43219 | 35934 ft | 436 kts | 289° |
| 2026-05-06 12:33 | 24.22918 | 40.37343 | 35933 ft | 436 kts | 289° |
| 2026-05-06 12:33 | 24.25753 | 40.31471 | 35933 ft | 436 kts | 289° |
| 2026-05-06 12:34 | 24.28553 | 40.25634 | 35930 ft | 435 kts | 289° |
| 2026-05-06 12:34 | 24.31366 | 40.19742 | 35934 ft | 438 kts | 289° |
| 2026-05-06 12:35 | 24.34190 | 40.13820 | 35925 ft | 436 kts | 289° |
| 2026-05-06 12:35 | 24.36999 | 40.07933 | 35932 ft | 435 kts | 289° |
| 2026-05-06 12:36 | 24.39797 | 40.02051 | 35951 ft | 435 kts | 289° |
| 2026-05-06 12:36 | 24.42591 | 39.96171 | 35935 ft | 434 kts | 289° |
| 2026-05-06 12:37 | 24.45385 | 39.90285 | 35930 ft | 434 kts | 289° |
| 2026-05-06 12:37 | 24.48154 | 39.84444 | 35940 ft | 434 kts | 289° |
| 2026-05-06 12:38 | 24.50942 | 39.78556 | 35944 ft | 434 kts | 289° |
| 2026-05-06 12:38 | 24.53917 | 39.72753 | 35939 ft | 442 kts | 296° |
| 2026-05-06 12:39 | 24.55877 | 39.70104 | 35934 ft | 453 kts | 304° |
| 2026-05-06 12:39 | 24.58241 | 39.67757 | 35939 ft | 463 kts | 311° |
| 2026-05-06 12:39 | 24.63412 | 39.63466 | 35933 ft | 468 kts | 314° |
| 2026-05-06 12:40 | 24.68716 | 39.59301 | 35935 ft | 468 kts | 314° |
| 2026-05-06 12:40 | 24.74011 | 39.55128 | 35936 ft | 468 kts | 314° |
| 2026-05-06 12:41 | 24.79286 | 39.50925 | 35933 ft | 468 kts | 314° |
| 2026-05-06 12:41 | 24.84515 | 39.46738 | 35930 ft | 467 kts | 314° |
| 2026-05-06 12:42 | 24.89776 | 39.42516 | 35936 ft | 467 kts | 314° |
| 2026-05-06 12:42 | 24.95034 | 39.38292 | 35930 ft | 467 kts | 314° |
| 2026-05-06 12:43 | 25.00283 | 39.34072 | 35955 ft | 467 kts | 314° |
| 2026-05-06 12:43 | 25.05535 | 39.29847 | 35939 ft | 467 kts | 314° |
| 2026-05-06 12:44 | 25.10796 | 39.25611 | 35937 ft | 467 kts | 314° |
| 2026-05-06 12:44 | 25.16048 | 39.21376 | 35942 ft | 468 kts | 314° |
| 2026-05-06 12:45 | 25.21108 | 39.17003 | 35945 ft | 457 kts | 306° |
| 2026-05-06 12:45 | 25.25004 | 39.11656 | 35947 ft | 442 kts | 295° |
| 2026-05-06 12:46 | 25.26720 | 39.08835 | 35943 ft | 442 kts | 294° |
| 2026-05-06 12:46 | 25.30046 | 39.03131 | 35944 ft | 441 kts | 294° |
| 2026-05-06 12:47 | 25.33351 | 38.97407 | 35937 ft | 442 kts | 294° |
| 2026-05-06 12:47 | 25.36676 | 38.91686 | 35927 ft | 442 kts | 294° |
| 2026-05-06 12:48 | 25.40003 | 38.85977 | 35926 ft | 441 kts | 294° |
| 2026-05-06 12:48 | 25.43303 | 38.80316 | 35909 ft | 440 kts | 294° |
| 2026-05-06 12:49 | 25.46621 | 38.74618 | 35911 ft | 440 kts | 294° |
| 2026-05-06 12:49 | 25.49933 | 38.68919 | 35903 ft | 440 kts | 294° |
| 2026-05-06 12:50 | 25.53253 | 38.63199 | 35903 ft | 441 kts | 294° |
| 2026-05-06 12:50 | 25.56570 | 38.57478 | 35900 ft | 441 kts | 294° |
| 2026-05-06 12:51 | 25.59864 | 38.51791 | 35903 ft | 441 kts | 294° |
| 2026-05-06 12:51 | 25.63176 | 38.46065 | 35891 ft | 441 kts | 294° |
| 2026-05-06 12:52 | 25.66491 | 38.40326 | 35898 ft | 441 kts | 294° |
| 2026-05-06 12:52 | 25.69798 | 38.34594 | 35901 ft | 441 kts | 294° |
| 2026-05-06 12:53 | 25.73101 | 38.28863 | 35900 ft | 441 kts | 294° |
| 2026-05-06 12:53 | 25.76382 | 38.23164 | 35896 ft | 441 kts | 294° |
| 2026-05-06 12:54 | 25.79679 | 38.17426 | 35892 ft | 441 kts | 294° |
| 2026-05-06 12:54 | 25.82982 | 38.11673 | 35893 ft | 442 kts | 294° |
| 2026-05-06 12:55 | 25.86290 | 38.05907 | 35894 ft | 442 kts | 294° |
| 2026-05-06 12:55 | 25.89597 | 38.00132 | 35918 ft | 443 kts | 294° |
| 2026-05-06 12:56 | 25.92908 | 37.94339 | 35929 ft | 444 kts | 294° |
| 2026-05-06 12:56 | 25.96196 | 37.88590 | 35921 ft | 442 kts | 294° |
| 2026-05-06 12:57 | 25.99319 | 37.82740 | 35921 ft | 434 kts | 287° |
| 2026-05-06 12:57 | 26.01081 | 37.76454 | 35931 ft | 421 kts | 275° |
| 2026-05-06 12:58 | 26.02048 | 37.70035 | 35949 ft | 421 kts | 273° |
| 2026-05-06 12:58 | 26.02890 | 37.63591 | 35944 ft | 421 kts | 272° |
| 2026-05-06 12:59 | 26.03727 | 37.57183 | 35929 ft | 420 kts | 272° |
| 2026-05-06 12:59 | 26.04586 | 37.50752 | 35942 ft | 419 kts | 273° |
| 2026-05-06 13:00 | 26.05452 | 37.44335 | 35931 ft | 420 kts | 273° |
| 2026-05-06 13:00 | 26.06312 | 37.37895 | 35922 ft | 421 kts | 273° |
| 2026-05-06 13:01 | 26.07169 | 37.31462 | 35929 ft | 421 kts | 273° |
| 2026-05-06 13:01 | 26.08024 | 37.25025 | 35927 ft | 421 kts | 273° |
| 2026-05-06 13:02 | 26.08871 | 37.18620 | 35925 ft | 422 kts | 273° |
| 2026-05-06 13:02 | 26.09724 | 37.12152 | 35916 ft | 422 kts | 273° |
| 2026-05-06 13:03 | 26.10576 | 37.05680 | 35916 ft | 422 kts | 273° |
| 2026-05-06 13:03 | 26.11424 | 36.99208 | 35918 ft | 422 kts | 273° |
| 2026-05-06 13:04 | 26.12270 | 36.92724 | 35920 ft | 423 kts | 273° |
| 2026-05-06 13:04 | 26.13107 | 36.86281 | 35910 ft | 423 kts | 273° |
| 2026-05-06 13:05 | 26.13948 | 36.79802 | 35919 ft | 422 kts | 273° |
| 2026-05-06 13:05 | 26.14784 | 36.73331 | 35934 ft | 422 kts | 274° |
| 2026-05-06 13:06 | 26.15618 | 36.66841 | 35920 ft | 423 kts | 274° |
| 2026-05-06 13:06 | 26.16450 | 36.60351 | 35920 ft | 423 kts | 274° |
| 2026-05-06 13:07 | 26.17390 | 36.53906 | 35911 ft | 427 kts | 279° |
| 2026-05-06 13:07 | 26.19623 | 36.47696 | 35912 ft | 439 kts | 295° |
| 2026-05-06 13:08 | 26.23474 | 36.42301 | 35911 ft | 450 kts | 306° |
| 2026-05-06 13:08 | 26.27832 | 36.37265 | 35911 ft | 452 kts | 307° |
| 2026-05-06 13:09 | 26.31505 | 36.33113 | 35914 ft | 452 kts | 307° |
| 2026-05-06 13:09 | 26.36610 | 36.27283 | 35918 ft | 451 kts | 307° |
| 2026-05-06 13:10 | 26.40237 | 36.23101 | 35926 ft | 451 kts | 307° |
| 2026-05-06 13:10 | 26.44582 | 36.18073 | 35925 ft | 449 kts | 307° |
| 2026-05-06 13:11 | 26.48922 | 36.13044 | 35926 ft | 449 kts | 307° |
| 2026-05-06 13:11 | 26.53259 | 36.08014 | 35925 ft | 449 kts | 307° |
| 2026-05-06 13:12 | 26.57592 | 36.02984 | 35928 ft | 449 kts | 307° |
| 2026-05-06 13:12 | 26.61926 | 35.97948 | 35926 ft | 449 kts | 307° |
| 2026-05-06 13:13 | 26.66235 | 35.92934 | 35949 ft | 449 kts | 307° |
| 2026-05-06 13:13 | 26.70563 | 35.87894 | 35926 ft | 449 kts | 307° |
| 2026-05-06 13:14 | 26.74887 | 35.82852 | 35929 ft | 449 kts | 307° |
| 2026-05-06 13:14 | 26.79182 | 35.77837 | 36009 ft | 449 kts | 307° |
| 2026-05-06 13:14 | 26.81344 | 35.75319 | 36207 ft | 448 kts | 307° |
| 2026-05-06 13:15 | 26.83494 | 35.72806 | 36430 ft | 446 kts | 307° |
| 2026-05-06 13:15 | 26.85636 | 35.70299 | 36635 ft | 445 kts | 307° |
| 2026-05-06 13:15 | 26.87772 | 35.67798 | 36799 ft | 445 kts | 307° |
| 2026-05-06 13:15 | 26.89912 | 35.65291 | 36974 ft | 444 kts | 307° |
| 2026-05-06 13:16 | 26.92051 | 35.62782 | 37133 ft | 444 kts | 307° |
| 2026-05-06 13:16 | 26.94185 | 35.60280 | 37288 ft | 444 kts | 307° |
| 2026-05-06 13:16 | 26.96316 | 35.57780 | 37442 ft | 443 kts | 306° |
| 2026-05-06 13:16 | 26.98445 | 35.55281 | 37592 ft | 443 kts | 306° |
| 2026-05-06 13:17 | 27.00570 | 35.52785 | 37731 ft | 443 kts | 306° |
| 2026-05-06 13:17 | 27.02700 | 35.50282 | 37877 ft | 442 kts | 306° |
| 2026-05-06 13:17 | 27.04828 | 35.47778 | 37941 ft | 444 kts | 307° |
| 2026-05-06 13:18 | 27.09081 | 35.42775 | 37932 ft | 441 kts | 307° |
| 2026-05-06 13:18 | 27.13282 | 35.37827 | 37931 ft | 440 kts | 306° |
| 2026-05-06 13:19 | 27.17503 | 35.32846 | 37927 ft | 440 kts | 306° |
| 2026-05-06 13:19 | 27.21727 | 35.27856 | 37927 ft | 440 kts | 306° |
| 2026-05-06 13:20 | 27.25955 | 35.22857 | 37937 ft | 440 kts | 307° |
| 2026-05-06 13:20 | 27.30165 | 35.17874 | 37930 ft | 439 kts | 307° |
| 2026-05-06 13:21 | 27.34351 | 35.12913 | 37929 ft | 439 kts | 306° |
| 2026-05-06 13:21 | 27.38560 | 35.07918 | 37927 ft | 439 kts | 306° |
| 2026-05-06 13:22 | 27.42760 | 35.02928 | 37925 ft | 439 kts | 307° |
| 2026-05-06 13:22 | 27.46969 | 34.97921 | 37930 ft | 440 kts | 307° |
| 2026-05-06 13:23 | 27.51168 | 34.92923 | 37933 ft | 439 kts | 307° |
| 2026-05-06 13:23 | 27.55504 | 34.88100 | 37935 ft | 442 kts | 310° |
| 2026-05-06 13:24 | 27.60047 | 34.83421 | 37950 ft | 442 kts | 311° |
| 2026-05-06 13:24 | 27.64574 | 34.78732 | 37950 ft | 442 kts | 310° |
| 2026-05-06 13:25 | 27.69069 | 34.74001 | 37944 ft | 442 kts | 310° |
| 2026-05-06 13:25 | 27.73543 | 34.69257 | 37958 ft | 440 kts | 310° |
| 2026-05-06 13:26 | 27.78004 | 34.64518 | 37967 ft | 440 kts | 310° |
| 2026-05-06 13:26 | 27.82462 | 34.59779 | 37965 ft | 440 kts | 310° |
| 2026-05-06 13:27 | 27.86890 | 34.55067 | 37964 ft | 440 kts | 310° |
| 2026-05-06 13:27 | 27.91342 | 34.50326 | 37967 ft | 440 kts | 310° |
| 2026-05-06 13:28 | 27.95791 | 34.45583 | 37958 ft | 439 kts | 310° |
| 2026-05-06 13:28 | 28.00125 | 34.40749 | 37969 ft | 434 kts | 304° |
| 2026-05-06 13:29 | 28.04018 | 34.35539 | 37955 ft | 432 kts | 304° |
| 2026-05-06 13:29 | 28.07092 | 34.31291 | 37962 ft | 432 kts | 303° |
| 2026-05-06 13:30 | 28.07769 | 34.30350 | 37984 ft | 432 kts | 303° |
| 2026-05-06 13:30 | 28.10534 | 34.26500 | 37986 ft | 432 kts | 303° |
| 2026-05-06 13:31 | 28.14015 | 34.21660 | 38006 ft | 432 kts | 303° |
| 2026-05-06 13:31 | 28.17813 | 34.16384 | 37997 ft | 431 kts | 304° |
| 2026-05-06 13:32 | 28.21611 | 34.11110 | 37999 ft | 431 kts | 304° |
| 2026-05-06 13:32 | 28.25401 | 34.05840 | 38000 ft | 431 kts | 304° |
| 2026-05-06 13:33 | 28.29167 | 34.00594 | 38000 ft | 431 kts | 303° |
| 2026-05-06 13:33 | 28.32955 | 33.95313 | 38010 ft | 431 kts | 303° |
| 2026-05-06 13:34 | 28.36740 | 33.90022 | 37999 ft | 432 kts | 304° |
| 2026-05-06 13:34 | 28.40528 | 33.84730 | 38001 ft | 432 kts | 304° |
| 2026-05-06 13:35 | 28.44310 | 33.79441 | 37993 ft | 431 kts | 304° |
| 2026-05-06 13:35 | 28.48085 | 33.74151 | 37990 ft | 431 kts | 303° |
| 2026-05-06 13:36 | 28.51844 | 33.68873 | 37992 ft | 431 kts | 304° |
| 2026-05-06 13:36 | 28.55616 | 33.63576 | 37997 ft | 430 kts | 304° |
| 2026-05-06 13:37 | 28.59371 | 33.58315 | 37984 ft | 428 kts | 304° |
| 2026-05-06 13:37 | 28.63127 | 33.53048 | 37991 ft | 428 kts | 304° |
| 2026-05-06 13:38 | 28.66870 | 33.47782 | 37991 ft | 427 kts | 304° |
| 2026-05-06 13:38 | 28.70600 | 33.42506 | 37991 ft | 427 kts | 304° |
| 2026-05-06 13:39 | 28.74310 | 33.37255 | 37986 ft | 427 kts | 304° |
| 2026-05-06 13:39 | 28.78039 | 33.31978 | 37989 ft | 427 kts | 304° |
| 2026-05-06 13:40 | 28.81766 | 33.26699 | 37992 ft | 427 kts | 304° |
| 2026-05-06 13:40 | 28.85490 | 33.21416 | 37992 ft | 427 kts | 304° |
| 2026-05-06 13:41 | 28.89213 | 33.16129 | 37999 ft | 427 kts | 304° |
| 2026-05-06 13:41 | 28.92930 | 33.10843 | 37995 ft | 426 kts | 304° |
| 2026-05-06 13:42 | 28.96641 | 33.05559 | 37995 ft | 426 kts | 304° |
| 2026-05-06 13:42 | 29.00349 | 33.00272 | 37998 ft | 426 kts | 304° |
| 2026-05-06 13:43 | 29.04059 | 32.94975 | 37998 ft | 426 kts | 304° |
| 2026-05-06 13:43 | 29.07737 | 32.89718 | 38006 ft | 426 kts | 304° |
| 2026-05-06 13:44 | 29.11441 | 32.84418 | 38007 ft | 426 kts | 304° |
| 2026-05-06 13:44 | 29.12065 | 32.83525 | 38015 ft | 426 kts | 304° |
| 2026-05-06 13:45 | 29.17545 | 32.75668 | 38016 ft | 426 kts | 304° |
| 2026-05-06 13:46 | 29.21213 | 32.70399 | 38026 ft | 426 kts | 304° |
| 2026-05-06 13:46 | 29.24911 | 32.65083 | 38026 ft | 426 kts | 304° |
| 2026-05-06 13:47 | 29.28602 | 32.59769 | 38036 ft | 426 kts | 304° |
| 2026-05-06 13:47 | 29.32285 | 32.54429 | 38034 ft | 426 kts | 303° |
| 2026-05-06 13:48 | 29.35940 | 32.49093 | 38041 ft | 426 kts | 303° |
| 2026-05-06 13:48 | 29.39577 | 32.43780 | 38044 ft | 426 kts | 303° |
| 2026-05-06 13:49 | 29.43239 | 32.38430 | 38047 ft | 426 kts | 303° |
| 2026-05-06 13:49 | 29.46899 | 32.33079 | 38053 ft | 426 kts | 303° |
| 2026-05-06 13:50 | 29.50564 | 32.27713 | 38054 ft | 426 kts | 303° |
| 2026-05-06 13:50 | 29.54219 | 32.22353 | 38056 ft | 426 kts | 303° |
| 2026-05-06 13:51 | 29.57851 | 32.17022 | 38068 ft | 426 kts | 303° |
| 2026-05-06 13:51 | 29.61505 | 32.11652 | 38067 ft | 425 kts | 303° |
| 2026-05-06 13:52 | 29.65149 | 32.06289 | 38071 ft | 425 kts | 303° |
| 2026-05-06 13:52 | 29.68790 | 32.00922 | 38066 ft | 425 kts | 303° |
| 2026-05-06 13:53 | 29.72398 | 31.95597 | 38069 ft | 425 kts | 303° |
| 2026-05-06 13:53 | 29.76030 | 31.90231 | 38080 ft | 425 kts | 303° |
| 2026-05-06 13:54 | 29.79652 | 31.84858 | 38073 ft | 424 kts | 303° |
| 2026-05-06 13:54 | 29.83162 | 31.79407 | 38079 ft | 424 kts | 302° |
| 2026-05-06 13:55 | 29.86637 | 31.73923 | 38069 ft | 423 kts | 302° |
| 2026-05-06 13:55 | 29.90123 | 31.68447 | 38070 ft | 423 kts | 302° |
| 2026-05-06 13:56 | 29.93624 | 31.62983 | 38066 ft | 424 kts | 302° |
| 2026-05-06 13:56 | 29.97148 | 31.57543 | 38051 ft | 424 kts | 302° |
| 2026-05-06 13:57 | 30.00677 | 31.52097 | 38057 ft | 423 kts | 302° |
| 2026-05-06 13:57 | 30.03598 | 31.47575 | 38048 ft | 423 kts | 302° |
| 2026-05-06 13:58 | 30.07108 | 31.42131 | 38048 ft | 422 kts | 302° |
| 2026-05-06 13:58 | 30.11686 | 31.36222 | 38048 ft | 427 kts | 311° |
| 2026-05-06 13:59 | 30.15289 | 31.32279 | 38072 ft | 428 kts | 312° |
| 2026-05-06 13:59 | 30.19666 | 31.27601 | 38050 ft | 428 kts | 312° |
| 2026-05-06 14:00 | 30.24041 | 31.22925 | 38048 ft | 428 kts | 312° |
| 2026-05-06 14:00 | 30.25098 | 31.21792 | 38046 ft | 428 kts | 312° |
| 2026-05-06 14:01 | 30.29456 | 31.17105 | 38048 ft | 428 kts | 312° |
| 2026-05-06 14:01 | 30.33815 | 31.12404 | 38048 ft | 428 kts | 312° |
| 2026-05-06 14:02 | 30.38168 | 31.07703 | 38047 ft | 428 kts | 312° |
| 2026-05-06 14:02 | 30.42490 | 31.03030 | 38056 ft | 428 kts | 312° |
| 2026-05-06 14:03 | 30.46841 | 30.98321 | 38055 ft | 428 kts | 312° |
| 2026-05-06 14:03 | 30.51189 | 30.93609 | 38066 ft | 428 kts | 312° |
| 2026-05-06 14:04 | 30.55539 | 30.88889 | 38048 ft | 428 kts | 312° |
| 2026-05-06 14:04 | 30.59877 | 30.84175 | 38066 ft | 428 kts | 312° |
| 2026-05-06 14:05 | 30.64226 | 30.79444 | 38070 ft | 428 kts | 312° |
| 2026-05-06 14:05 | 30.68566 | 30.74716 | 38048 ft | 428 kts | 312° |
| 2026-05-06 14:06 | 30.72903 | 30.69986 | 38072 ft | 428 kts | 312° |
| 2026-05-06 14:06 | 30.77244 | 30.65245 | 38058 ft | 428 kts | 312° |
| 2026-05-06 14:07 | 30.81550 | 30.60535 | 38075 ft | 428 kts | 312° |
| 2026-05-06 14:07 | 30.85884 | 30.55790 | 38073 ft | 428 kts | 312° |
| 2026-05-06 14:08 | 30.90220 | 30.51036 | 38075 ft | 427 kts | 312° |
| 2026-05-06 14:08 | 30.94549 | 30.46283 | 38076 ft | 427 kts | 312° |
| 2026-05-06 14:09 | 30.98850 | 30.41554 | 38079 ft | 428 kts | 312° |
| 2026-05-06 14:09 | 31.03184 | 30.36784 | 38082 ft | 428 kts | 312° |
| 2026-05-06 14:10 | 31.07329 | 30.31833 | 38087 ft | 424 kts | 304° |
| 2026-05-06 14:10 | 31.10256 | 30.25954 | 38087 ft | 418 kts | 289° |
| 2026-05-06 14:11 | 31.12166 | 30.19559 | 38088 ft | 418 kts | 286° |
| 2026-05-06 14:11 | 31.13904 | 30.13079 | 38093 ft | 418 kts | 285° |
| 2026-05-06 14:12 | 31.15629 | 30.06600 | 38092 ft | 419 kts | 286° |
| 2026-05-06 14:12 | 31.17372 | 30.00132 | 38091 ft | 419 kts | 286° |
| 2026-05-06 14:13 | 31.19682 | 29.93873 | 38098 ft | 422 kts | 298° |
| 2026-05-06 14:13 | 31.22990 | 29.88189 | 38102 ft | 424 kts | 302° |
| 2026-05-06 14:14 | 31.26479 | 29.82616 | 38102 ft | 425 kts | 303° |
| 2026-05-06 14:14 | 31.29986 | 29.77054 | 38102 ft | 425 kts | 303° |
| 2026-05-06 14:15 | 31.33484 | 29.71465 | 38104 ft | 426 kts | 303° |
| 2026-05-06 14:15 | 31.36971 | 29.65860 | 38104 ft | 426 kts | 303° |
| 2026-05-06 14:16 | 31.40430 | 29.60287 | 38103 ft | 426 kts | 303° |
| 2026-05-06 14:16 | 31.43905 | 29.54681 | 38105 ft | 426 kts | 303° |
| 2026-05-06 14:17 | 31.47382 | 29.49063 | 38105 ft | 426 kts | 303° |
| 2026-05-06 14:17 | 31.50861 | 29.43435 | 38105 ft | 426 kts | 303° |
| 2026-05-06 14:18 | 31.54336 | 29.37808 | 38105 ft | 426 kts | 303° |
| 2026-05-06 14:18 | 31.57806 | 29.32177 | 38108 ft | 426 kts | 303° |
| 2026-05-06 14:19 | 31.61257 | 29.26576 | 38105 ft | 426 kts | 303° |
| 2026-05-06 14:19 | 31.64720 | 29.20919 | 38104 ft | 426 kts | 303° |
| 2026-05-06 14:20 | 31.68179 | 29.15259 | 38138 ft | 427 kts | 303° |
| 2026-05-06 14:20 | 31.71653 | 29.09607 | 38108 ft | 427 kts | 305° |
| 2026-05-06 14:21 | 31.75831 | 29.04605 | 38104 ft | 431 kts | 315° |
| 2026-05-06 14:21 | 31.80438 | 29.00063 | 38109 ft | 433 kts | 317° |
| 2026-05-06 14:22 | 31.85116 | 28.95591 | 38109 ft | 433 kts | 317° |
| 2026-05-06 14:22 | 31.89763 | 28.91141 | 38107 ft | 433 kts | 317° |
| 2026-05-06 14:23 | 31.94433 | 28.86641 | 38110 ft | 433 kts | 317° |
| 2026-05-06 14:23 | 31.99085 | 28.82141 | 38108 ft | 433 kts | 317° |
| 2026-05-06 14:24 | 32.03738 | 28.77632 | 38105 ft | 432 kts | 317° |
| 2026-05-06 14:24 | 32.08349 | 28.73159 | 38123 ft | 432 kts | 317° |
| 2026-05-06 14:25 | 32.12993 | 28.68649 | 38104 ft | 432 kts | 317° |
| 2026-05-06 14:25 | 32.17629 | 28.64140 | 38107 ft | 432 kts | 317° |
| 2026-05-06 14:26 | 32.22278 | 28.59612 | 38116 ft | 433 kts | 317° |
| 2026-05-06 14:26 | 32.26928 | 28.55077 | 38103 ft | 433 kts | 317° |
| 2026-05-06 14:27 | 32.31574 | 28.50541 | 38102 ft | 433 kts | 317° |
| 2026-05-06 14:27 | 32.36213 | 28.46004 | 38104 ft | 432 kts | 317° |
| 2026-05-06 14:28 | 32.40814 | 28.41499 | 38108 ft | 432 kts | 317° |
| 2026-05-06 14:28 | 32.45438 | 28.36965 | 38105 ft | 432 kts | 317° |
| 2026-05-06 14:29 | 32.50075 | 28.32411 | 38104 ft | 432 kts | 317° |
| 2026-05-06 14:29 | 32.54708 | 28.27856 | 38107 ft | 434 kts | 317° |
| 2026-05-06 14:30 | 32.59355 | 28.23282 | 38105 ft | 433 kts | 317° |
| 2026-05-06 14:30 | 32.63968 | 28.18734 | 38104 ft | 433 kts | 317° |
| 2026-05-06 14:31 | 32.68599 | 28.14162 | 38102 ft | 433 kts | 317° |
| 2026-05-06 14:31 | 32.73235 | 28.09578 | 38102 ft | 433 kts | 317° |
| 2026-05-06 14:32 | 32.77864 | 28.04994 | 38103 ft | 433 kts | 317° |
| 2026-05-06 14:32 | 32.82502 | 28.00395 | 38105 ft | 434 kts | 317° |
| 2026-05-06 14:33 | 32.87144 | 27.95786 | 38102 ft | 434 kts | 317° |
| 2026-05-06 14:33 | 32.91785 | 27.91170 | 38102 ft | 434 kts | 317° |
| 2026-05-06 14:34 | 32.96424 | 27.86551 | 38113 ft | 434 kts | 317° |
| 2026-05-06 14:34 | 33.01019 | 27.81970 | 38099 ft | 433 kts | 317° |
| 2026-05-06 14:35 | 33.05639 | 27.77357 | 38102 ft | 433 kts | 317° |
| 2026-05-06 14:35 | 33.10256 | 27.72740 | 38102 ft | 433 kts | 317° |
| 2026-05-06 14:36 | 33.14870 | 27.68119 | 38101 ft | 433 kts | 317° |
| 2026-05-06 14:36 | 33.19485 | 27.63490 | 38097 ft | 433 kts | 317° |
| 2026-05-06 14:37 | 33.24105 | 27.58850 | 38102 ft | 433 kts | 317° |
| 2026-05-06 14:37 | 33.28727 | 27.54201 | 38106 ft | 433 kts | 317° |
| 2026-05-06 14:38 | 33.33303 | 27.49594 | 38102 ft | 432 kts | 317° |
| 2026-05-06 14:38 | 33.37902 | 27.44954 | 38100 ft | 433 kts | 317° |
| 2026-05-06 14:39 | 33.42506 | 27.40304 | 38110 ft | 433 kts | 317° |
| 2026-05-06 14:39 | 33.47114 | 27.35644 | 38099 ft | 433 kts | 317° |
| 2026-05-06 14:40 | 33.51713 | 27.30985 | 38099 ft | 433 kts | 317° |
| 2026-05-06 14:40 | 33.56310 | 27.26322 | 38111 ft | 433 kts | 317° |
| 2026-05-06 14:41 | 33.60870 | 27.21689 | 38102 ft | 432 kts | 317° |
| 2026-05-06 14:41 | 33.65452 | 27.17027 | 38102 ft | 431 kts | 317° |
| 2026-05-06 14:42 | 33.70036 | 27.12357 | 38103 ft | 432 kts | 317° |
| 2026-05-06 14:42 | 33.74620 | 27.07680 | 38102 ft | 432 kts | 317° |
| 2026-05-06 14:43 | 33.79210 | 27.02990 | 38102 ft | 432 kts | 317° |
| 2026-05-06 14:43 | 33.83779 | 26.98315 | 38102 ft | 432 kts | 317° |
| 2026-05-06 14:44 | 33.88359 | 26.93621 | 38102 ft | 433 kts | 317° |
| 2026-05-06 14:45 | 33.95215 | 26.86583 | 38097 ft | 431 kts | 317° |
| 2026-05-06 14:45 | 33.99787 | 26.81881 | 38103 ft | 432 kts | 317° |
| 2026-05-06 14:46 | 34.03667 | 26.78066 | 38100 ft | 433 kts | 320° |
| 2026-05-06 14:46 | 34.08478 | 26.73682 | 38102 ft | 434 kts | 321° |
| 2026-05-06 14:47 | 34.14073 | 26.68586 | 38102 ft | 433 kts | 320° |
| 2026-05-06 14:47 | 34.18059 | 26.64900 | 38102 ft | 433 kts | 320° |
| 2026-05-06 14:48 | 34.22830 | 26.60457 | 38102 ft | 432 kts | 320° |
| 2026-05-06 14:48 | 34.27588 | 26.56013 | 38101 ft | 432 kts | 320° |
| 2026-05-06 14:49 | 34.32352 | 26.51558 | 38100 ft | 433 kts | 320° |
| 2026-05-06 14:49 | 34.37126 | 26.47090 | 38103 ft | 433 kts | 320° |
| 2026-05-06 14:50 | 34.41866 | 26.42648 | 38104 ft | 433 kts | 320° |
| 2026-05-06 14:50 | 34.46637 | 26.38171 | 38102 ft | 433 kts | 320° |
| 2026-05-06 14:51 | 34.51407 | 26.33688 | 38103 ft | 433 kts | 320° |
| 2026-05-06 14:51 | 34.56158 | 26.29215 | 38099 ft | 432 kts | 320° |
| 2026-05-06 14:52 | 34.60923 | 26.24723 | 38097 ft | 432 kts | 320° |
| 2026-05-06 14:52 | 34.65655 | 26.20255 | 38102 ft | 434 kts | 320° |
| 2026-05-06 14:53 | 34.70420 | 26.15749 | 38099 ft | 434 kts | 320° |
| 2026-05-06 14:53 | 34.75189 | 26.11232 | 38099 ft | 434 kts | 320° |
| 2026-05-06 14:54 | 34.79946 | 26.06721 | 38106 ft | 433 kts | 320° |
| 2026-05-06 14:54 | 34.84692 | 26.02214 | 38102 ft | 432 kts | 320° |
| 2026-05-06 14:55 | 34.89435 | 25.97702 | 38100 ft | 432 kts | 320° |
| 2026-05-06 14:55 | 34.94178 | 25.93183 | 38103 ft | 433 kts | 320° |
| 2026-05-06 14:56 | 34.98924 | 25.88654 | 38106 ft | 433 kts | 320° |
| 2026-05-06 14:56 | 35.03648 | 25.84139 | 38100 ft | 434 kts | 320° |
| 2026-05-06 14:57 | 35.08398 | 25.79594 | 38110 ft | 434 kts | 320° |
| 2026-05-06 14:57 | 35.13132 | 25.75052 | 38100 ft | 432 kts | 320° |
| 2026-05-06 14:58 | 35.17842 | 25.70503 | 38102 ft | 431 kts | 320° |
| 2026-05-06 14:58 | 35.22556 | 25.65946 | 38103 ft | 431 kts | 320° |